Time;durP1;ratioP1;P1;durP2;ratioP2;P2;SDS_P1;SDS_P2;PMS_P1;PMS_P2;Temp;Humidity;BMP_temperature;BMP_pressure;BME280_temperature;BME280_humidity;BME280_pressure;Samples;Min_cycle;Max_cycle;Signal;HPM_P1;HPM_P2
2023/07/11 00:00:26;;;;;;;22.27;20.77;;;18.60;77.60;;;;;;5084506;28;20617;-73
2023/07/11 00:02:52;;;;;;;29.45;27.67;;;18.60;77.80;;;;;;5104917;28;20089;-73
2023/07/11 00:05:18;;;;;;;26.38;24.95;;;18.70;79.40;;;;;;5103683;28;20495;-73
2023/07/11 00:07:44;;;;;;;27.42;25.52;;;18.60;79.60;;;;;;5081908;28;20038;-73
2023/07/11 00:10:13;;;;;;;26.35;24.88;;;18.60;79.70;;;;;;5101869;28;20030;-73
2023/07/11 00:12:38;;;;;;;23.88;22.17;;;18.50;79.20;;;;;;5099608;28;20040;-73
2023/07/11 00:15:06;;;;;;;22.02;20.52;;;18.40;78.60;;;;;;5101765;28;20218;-73
2023/07/11 00:17:32;;;;;;;21.58;19.92;;;18.50;77.90;;;;;;5103856;28;20513;-73
2023/07/11 00:19:59;;;;;;;22.50;20.77;;;18.40;77.60;;;;;;5100500;27;20117;-73
2023/07/11 00:22:28;;;;;;;23.88;22.35;;;18.40;77.60;;;;;;5106734;28;20030;-73
2023/07/11 00:24:54;;;;;;;22.63;21.13;;;18.40;78.00;;;;;;5103897;28;20071;-72
2023/07/11 00:27:23;;;;;;;25.33;23.38;;;18.40;78.60;;;;;;5103570;28;20779;-73
2023/07/11 00:29:49;;;;;;;22.75;20.83;;;18.30;78.50;;;;;;5102444;27;20043;-73
2023/07/11 00:32:14;;;;;;;21.92;20.50;;;18.30;78.30;;;;;;5086204;28;20343;-73
2023/07/11 00:34:40;;;;;;;22.13;20.38;;;18.30;78.20;;;;;;5105348;28;20540;-73
2023/07/11 00:37:07;;;;;;;27.73;25.98;;;18.30;77.90;;;;;;5103812;28;20158;-73
2023/07/11 00:39:35;;;;;;;23.60;22.05;;;18.30;78.90;;;;;;5100317;28;20059;-73
2023/07/11 00:42:04;;;;;;;26.65;25.05;;;18.30;78.90;;;;;;5085472;28;20439;-73
2023/07/11 00:44:53;;;;;;;26.27;24.55;;;18.30;80.00;;;;;;5104245;28;20424;-72
2023/07/11 00:47:20;;;;;;;26.42;24.65;;;18.20;80.90;;;;;;5096723;28;20154;-73
2023/07/11 00:49:47;;;;;;;28.00;26.30;;;18.10;81.60;;;;;;5099905;28;20718;-73
2023/07/11 00:52:16;;;;;;;27.83;25.65;;;18.10;81.20;;;;;;5106150;28;20106;-73
2023/07/11 00:54:47;;;;;;;26.13;24.48;;;18.10;82.00;;;;;;5102316;27;20512;-73
2023/07/11 00:57:16;;;;;;;25.40;23.90;;;18.00;80.40;;;;;;5086545;28;20036;-73
2023/07/11 00:59:43;;;;;;;25.63;24.13;;;18.00;80.90;;;;;;5100563;28;20101;-73
2023/07/11 01:02:14;;;;;;;27.13;25.33;;;18.00;82.10;;;;;;5107667;27;20531;-73
2023/07/11 01:04:40;;;;;;;24.80;23.33;;;17.90;81.90;;;;;;5100063;28;20032;-73
2023/07/11 01:07:08;;;;;;;26.88;25.27;;;17.80;82.80;;;;;;5102647;27;20519;-73
2023/07/11 01:09:34;;;;;;;25.98;23.70;;;17.80;82.80;;;;;;5101197;28;20099;-73
2023/07/11 01:12:05;;;;;;;25.92;24.33;;;17.70;83.10;;;;;;5098596;28;20596;-73
2023/07/11 01:14:31;;;;;;;24.70;23.00;;;17.70;82.00;;;;;;5085772;28;20032;-73
2023/07/11 01:16:57;;;;;;;24.83;23.13;;;17.70;83.30;;;;;;5101061;28;20080;-73
2023/07/11 01:19:23;;;;;;;26.13;24.27;;;17.50;83.60;;;;;;5101991;28;20066;-73
2023/07/11 01:21:49;;;;;;;25.23;23.48;;;17.50;83.50;;;;;;5104731;27;20034;-73
2023/07/11 01:24:15;;;;;;;25.25;23.50;;;17.60;83.50;;;;;;5096305;28;20389;-73
2023/07/11 01:26:41;;;;;;;22.88;21.17;;;17.50;84.00;;;;;;5103904;28;20023;-73
2023/07/11 01:29:08;;;;;;;24.42;22.83;;;17.40;84.10;;;;;;5104663;28;20028;-73
2023/07/11 01:31:34;;;;;;;25.92;23.98;;;17.30;85.00;;;;;;5102008;28;20028;-73
2023/07/11 01:34:05;;;;;;;24.98;23.27;;;17.30;84.70;;;;;;5103466;27;20031;-73
2023/07/11 01:36:32;;;;;;;26.25;24.42;;;17.40;85.20;;;;;;5103950;28;20532;-73
2023/07/11 01:38:59;;;;;;;24.98;23.15;;;17.30;84.20;;;;;;5102860;28;20024;-73
2023/07/11 01:41:24;;;;;;;23.42;21.73;;;17.30;84.50;;;;;;5101003;28;20036;-73
2023/07/11 01:43:52;;;;;;;25.23;23.40;;;17.50;84.80;;;;;;5101738;28;20039;-73
2023/07/11 01:46:17;;;;;;;24.13;22.15;;;17.40;83.30;;;;;;5102815;28;20034;-73
2023/07/11 01:48:43;;;;;;;26.92;24.52;;;17.40;84.40;;;;;;5104509;28;20024;-73
2023/07/11 01:51:08;;;;;;;24.35;22.75;;;17.30;83.90;;;;;;5103903;28;20392;-73
2023/07/11 01:53:34;;;;;;;25.73;23.92;;;17.30;83.80;;;;;;5103741;28;20560;-73
2023/07/11 01:56:02;;;;;;;24.73;22.75;;;17.30;83.40;;;;;;5102263;28;20036;-73
2023/07/11 01:58:28;;;;;;;24.13;22.52;;;17.30;83.30;;;;;;5103173;28;20055;-73
2023/07/11 02:00:55;;;;;;;24.08;22.48;;;17.30;83.20;;;;;;5084197;28;20393;-73
2023/07/11 02:03:21;;;;;;;24.77;23.05;;;17.30;83.10;;;;;;5106906;27;20484;-73
2023/07/11 02:05:47;;;;;;;24.23;22.60;;;17.40;83.20;;;;;;5101966;28;20067;-73
2023/07/11 02:08:13;;;;;;;22.63;21.10;;;17.30;82.90;;;;;;5101513;28;20055;-73
2023/07/11 02:10:38;;;;;;;23.48;21.42;;;17.40;84.30;;;;;;5098957;28;20057;-73
2023/07/11 02:13:04;;;;;;;22.73;21.08;;;17.30;83.60;;;;;;5100891;28;20065;-73
2023/07/11 02:15:30;;;;;;;23.10;21.48;;;17.20;84.00;;;;;;5102250;28;20502;-73
2023/07/11 02:17:57;;;;;;;24.15;22.05;;;17.30;83.90;;;;;;5101939;27;20031;-73
2023/07/11 02:20:23;;;;;;;23.45;20.95;;;17.20;84.50;;;;;;5099859;28;20039;-73
2023/07/11 02:22:48;;;;;;;24.08;21.63;;;17.10;85.00;;;;;;5104189;28;20418;-73
2023/07/11 02:25:14;;;;;;;22.45;20.52;;;17.20;85.20;;;;;;5100740;28;20024;-73
2023/07/11 02:27:40;;;;;;;20.88;19.33;;;17.10;85.70;;;;;;5101031;28;20096;-73
2023/07/11 02:30:06;;;;;;;25.92;20.60;;;17.00;86.30;;;;;;5084746;28;20028;-73
2023/07/11 02:32:32;;;;;;;22.67;20.88;;;17.00;86.20;;;;;;5102923;28;20088;-73
2023/07/11 02:34:57;;;;;;;23.13;21.02;;;17.00;84.80;;;;;;5102361;28;20027;-72
2023/07/11 02:37:23;;;;;;;23.35;21.48;;;17.00;85.90;;;;;;5102388;28;20691;-73
2023/07/11 02:39:49;;;;;;;22.58;20.95;;;17.00;86.80;;;;;;5096400;28;20741;-73
2023/07/11 02:42:14;;;;;;;23.27;21.10;;;16.90;85.80;;;;;;5083180;28;20488;-73
2023/07/11 02:44:40;;;;;;;22.35;20.08;;;17.00;86.20;;;;;;5099217;28;20550;-73
2023/07/11 02:47:06;;;;;;;25.25;23.13;;;16.90;86.80;;;;;;5081195;28;20703;-73
2023/07/11 02:49:32;;;;;;;23.50;21.80;;;16.80;87.10;;;;;;5101386;28;20130;-73
2023/07/11 02:51:57;;;;;;;22.67;20.67;;;16.80;87.80;;;;;;5097988;28;20107;-73
2023/07/11 02:54:23;;;;;;;22.95;21.05;;;16.90;87.50;;;;;;5096673;28;20107;-73
2023/07/11 02:56:49;;;;;;;21.95;20.25;;;16.80;86.60;;;;;;5085751;28;20259;-73
2023/07/11 02:59:14;;;;;;;22.42;20.77;;;16.90;87.60;;;;;;5084301;28;20016;-73
2023/07/11 03:01:40;;;;;;;22.55;20.50;;;16.90;86.70;;;;;;5103026;28;20398;-73
2023/07/11 03:04:06;;;;;;;22.45;20.20;;;16.80;86.90;;;;;;5098377;28;20069;-73
2023/07/11 03:06:31;;;;;;;22.70;20.42;;;16.70;87.10;;;;;;5103119;28;20534;-73
2023/07/11 03:08:57;;;;;;;22.45;20.45;;;16.70;88.70;;;;;;5095296;28;20031;-72
2023/07/11 03:11:23;;;;;;;23.40;21.27;;;16.50;88.20;;;;;;5100073;28;20160;-73
2023/07/11 03:13:48;;;;;;;21.90;20.25;;;16.50;88.10;;;;;;5096724;28;20047;-73
2023/07/11 03:16:14;;;;;;;23.10;21.10;;;16.40;88.60;;;;;;5083826;28;20046;-73
2023/07/11 03:18:40;;;;;;;23.58;21.48;;;16.30;89.40;;;;;;5102158;28;20032;-73
2023/07/11 03:21:05;;;;;;;24.17;22.27;;;16.20;89.30;;;;;;5098536;28;20044;-72
2023/07/11 03:23:31;;;;;;;23.92;21.70;;;16.10;89.90;;;;;;5098141;28;20050;-73
2023/07/11 03:25:57;;;;;;;21.25;19.58;;;16.20;90.00;;;;;;5102681;28;20477;-73
2023/07/11 03:28:23;;;;;;;21.73;19.98;;;16.30;89.90;;;;;;5098906;28;20031;-73
2023/07/11 03:30:49;;;;;;;23.30;21.40;;;16.30;89.90;;;;;;5102822;28;20556;-73
2023/07/11 03:33:15;;;;;;;20.65;18.80;;;16.50;90.10;;;;;;5099035;28;20038;-73
2023/07/11 03:35:40;;;;;;;21.58;19.58;;;16.50;89.40;;;;;;5095979;28;20107;-72
2023/07/11 03:38:06;;;;;;;22.27;20.48;;;16.40;89.00;;;;;;5103641;28;20522;-73
2023/07/11 03:40:31;;;;;;;21.85;19.98;;;16.40;89.80;;;;;;5101403;28;20066;-73
2023/07/11 03:42:57;;;;;;;23.08;21.17;;;16.40;89.20;;;;;;5101113;28;20533;-72
2023/07/11 03:45:23;;;;;;;21.58;20.02;;;16.40;89.70;;;;;;5100965;28;20027;-73
2023/07/11 03:47:49;;;;;;;21.13;19.55;;;16.40;89.60;;;;;;5103795;28;20384;-73
2023/07/11 03:50:15;;;;;;;23.67;22.02;;;16.40;89.30;;;;;;5104371;27;20527;-74
2023/07/11 03:52:41;;;;;;;21.52;20.02;;;16.40;89.00;;;;;;5105104;28;20023;-73
2023/07/11 03:55:07;;;;;;;21.67;19.80;;;16.40;88.70;;;;;;5102785;28;20404;-75
2023/07/11 03:57:34;;;;;;;21.63;20.13;;;16.50;89.00;;;;;;5085083;28;20046;-75
2023/07/11 03:59:59;;;;;;;24.77;22.55;;;16.50;88.90;;;;;;5102689;28;20528;-76
2023/07/11 04:02:25;;;;;;;23.02;20.98;;;16.50;90.20;;;;;;5101697;28;20086;-73
2023/07/11 04:04:51;;;;;;;24.40;22.58;;;16.60;89.90;;;;;;5095846;28;20035;-72
2023/07/11 04:07:16;;;;;;;23.48;21.75;;;16.40;89.20;;;;;;5100854;28;20496;-73
2023/07/11 04:09:42;;;;;;;23.38;21.30;;;16.50;90.00;;;;;;5103599;28;20092;-75
2023/07/11 04:12:09;;;;;;;21.05;19.52;;;16.60;89.80;;;;;;5101662;28;20088;-73
2023/07/11 04:14:34;;;;;;;21.17;19.40;;;16.70;89.30;;;;;;5103170;28;20031;-73
2023/07/11 04:17:00;;;;;;;22.67;21.10;;;16.80;88.40;;;;;;5103161;28;20055;-73
2023/07/11 04:19:25;;;;;;;22.00;20.42;;;16.70;88.60;;;;;;5101353;28;20032;-73
2023/07/11 04:21:51;;;;;;;21.15;19.45;;;16.70;88.30;;;;;;5104386;28;20028;-72
2023/07/11 04:24:17;;;;;;;21.70;19.65;;;16.80;88.00;;;;;;5103455;28;20043;-72
2023/07/11 04:26:42;;;;;;;23.15;21.45;;;16.90;88.30;;;;;;5103321;28;20028;-73
2023/07/11 04:29:08;;;;;;;20.77;19.17;;;16.80;88.20;;;;;;5099800;28;20024;-73
2023/07/11 04:31:34;;;;;;;23.50;21.58;;;16.90;89.40;;;;;;5100761;27;20032;-73
2023/07/11 04:33:59;;;;;;;23.65;21.98;;;17.10;88.70;;;;;;5100012;27;20046;-73
2023/07/11 04:36:25;;;;;;;22.95;21.42;;;17.20;88.90;;;;;;5102668;28;20052;-73
2023/07/11 04:38:51;;;;;;;22.85;20.95;;;17.30;88.90;;;;;;5099082;28;20036;-72
2023/07/11 04:41:17;;;;;;;23.20;21.52;;;17.40;88.00;;;;;;5105062;28;20118;-73
2023/07/11 04:43:42;;;;;;;24.45;22.58;;;17.50;87.80;;;;;;5101538;28;20035;-72
2023/07/11 04:46:09;;;;;;;23.08;21.27;;;17.50;87.70;;;;;;5096468;28;20032;-73
2023/07/11 04:48:35;;;;;;;23.33;21.15;;;17.50;87.90;;;;;;5101435;28;20593;-73
2023/07/11 04:51:04;;;;;;;21.30;19.58;;;17.60;88.00;;;;;;5101224;28;20492;-73
2023/07/11 04:53:31;;;;;;;22.75;21.05;;;18.00;86.70;;;;;;5101354;28;20023;-73
2023/07/11 04:55:59;;;;;;;22.42;20.70;;;17.90;86.40;;;;;;5100463;28;20107;-73
2023/07/11 04:58:31;;;;;;;21.65;19.98;;;18.10;86.30;;;;;;5100848;28;20024;-73
2023/07/11 05:01:08;;;;;;;22.13;20.42;;;18.30;85.80;;;;;;5106245;28;20062;-73
2023/07/11 05:03:34;;;;;;;23.75;21.90;;;18.40;85.10;;;;;;5102015;28;20035;-73
2023/07/11 05:06:01;;;;;;;25.27;23.58;;;18.60;84.60;;;;;;5101086;28;20084;-73
2023/07/11 05:08:27;;;;;;;24.73;22.35;;;18.70;84.10;;;;;;5101187;28;20024;-73
2023/07/11 05:11:11;;;;;;;23.88;22.38;;;18.80;82.60;;;;;;5102127;28;20062;-73
2023/07/11 05:13:36;;;;;;;25.08;23.33;;;19.00;82.40;;;;;;5102724;28;20149;-69
2023/07/11 05:16:27;;;;;;;23.95;22.35;;;19.00;82.50;;;;;;5087108;28;20118;-69
2023/07/11 05:18:54;;;;;;;25.48;23.63;;;19.10;83.20;;;;;;5100150;28;20040;-68
2023/07/11 05:21:20;;;;;;;27.25;25.33;;;19.10;81.40;;;;;;5099732;28;20168;-68
2023/07/11 05:23:46;;;;;;;25.27;23.38;;;19.10;82.00;;;;;;5097659;28;20027;-68
2023/07/11 05:26:13;;;;;;;24.50;22.70;;;19.20;81.80;;;;;;5100991;28;20032;-68
2023/07/11 05:28:38;;;;;;;25.83;23.77;;;19.20;80.50;;;;;;5099598;28;20023;-68
2023/07/11 05:31:07;;;;;;;26.02;24.25;;;19.30;81.50;;;;;;5097195;27;20725;-72
2023/07/11 05:33:33;;;;;;;25.38;23.58;;;19.50;81.90;;;;;;5102819;28;20024;-69
2023/07/11 05:36:34;;;;;;;27.67;25.70;;;19.60;79.90;;;;;;5100469;28;20040;-69
2023/07/11 05:39:04;;;;;;;;;;;19.50;80.10;;;;;;5084373;27;20131;-75
2023/07/11 05:41:30;;;;;;;21.95;20.35;;;19.60;78.50;;;;;;5105485;27;19911;-77
2023/07/11 05:43:56;;;;;;;23.88;21.83;;;19.70;77.80;;;;;;5066745;28;20057;-74
2023/07/11 05:46:26;;;;;;;25.27;22.98;;;19.80;77.70;;;;;;5083660;27;20016;-77
2023/07/11 05:48:53;;;;;;;23.83;21.70;;;19.90;78.50;;;;;;5096894;28;20776;-79
2023/07/11 05:51:20;;;;;;;23.75;21.80;;;20.00;76.30;;;;;;5102012;28;20085;-77
2023/07/11 05:53:46;;;;;;;26.38;24.27;;;20.00;76.00;;;;;;5104184;28;20030;-76
2023/07/11 05:56:13;;;;;;;25.52;23.33;;;20.20;76.70;;;;;;5103608;28;20493;-78
2023/07/11 05:58:40;;;;;;;24.40;21.83;;;20.20;77.00;;;;;;5086892;28;20108;-76
2023/07/11 06:01:06;;;;;;;26.17;23.73;;;20.30;75.80;;;;;;5084244;28;20447;-76
2023/07/11 06:03:33;;;;;;;24.88;22.67;;;20.30;76.10;;;;;;5080086;28;20044;-79
2023/07/11 06:06:01;;;;;;;25.50;23.00;;;20.50;75.60;;;;;;5083705;28;20031;-79
2023/07/11 06:08:27;;;;;;;24.15;22.45;;;20.70;73.70;;;;;;5084029;28;20028;-77
2023/07/11 06:10:57;;;;;;;25.27;23.30;;;20.80;76.00;;;;;;5067513;28;20085;-76
2023/07/11 06:13:23;;;;;;;23.85;22.05;;;21.00;73.50;;;;;;5099730;28;20149;-77
2023/07/11 06:15:49;;;;;;;23.60;21.60;;;21.10;74.50;;;;;;5101813;27;20024;-78
2023/07/11 06:18:14;;;;;;;24.20;22.38;;;21.30;74.00;;;;;;5095165;28;20382;-77
2023/07/11 06:20:40;;;;;;;23.48;21.70;;;21.30;73.90;;;;;;5097126;27;20049;-76
2023/07/11 06:23:05;;;;;;;26.20;24.33;;;21.50;72.60;;;;;;5082276;28;20051;-75
2023/07/11 06:25:31;;;;;;;24.95;22.80;;;21.50;71.30;;;;;;5083530;28;20038;-75
2023/07/11 06:27:57;;;;;;;25.98;23.88;;;21.70;70.60;;;;;;5084936;28;20052;-75
2023/07/11 06:30:22;;;;;;;23.83;21.92;;;21.80;71.60;;;;;;5104498;27;20034;-75
2023/07/11 06:32:48;;;;;;;24.55;22.30;;;21.80;70.20;;;;;;5103481;27;20023;-75
2023/07/11 06:35:14;;;;;;;23.55;21.85;;;21.90;71.20;;;;;;5083298;28;20051;-75
2023/07/11 06:37:39;;;;;;;25.02;22.83;;;22.10;71.60;;;;;;5099313;28;20059;-75
2023/07/11 06:40:08;;;;;;;24.35;22.17;;;22.20;68.50;;;;;;5095212;28;20092;-75
2023/07/11 06:42:34;;;;;;;23.90;21.90;;;22.20;68.60;;;;;;5101879;28;20519;-75
2023/07/11 06:45:00;;;;;;;25.73;23.58;;;22.40;69.40;;;;;;5081443;28;20028;-74
2023/07/11 06:47:25;;;;;;;24.45;22.65;;;22.60;70.20;;;;;;5102241;28;20032;-75
2023/07/11 06:49:51;;;;;;;24.38;22.45;;;22.60;68.40;;;;;;5082005;28;20058;-74
2023/07/11 06:52:17;;;;;;;25.25;23.17;;;22.80;69.30;;;;;;5083622;28;20739;-74
2023/07/11 06:54:42;;;;;;;26.27;21.63;;;22.80;66.10;;;;;;5101005;28;20443;-75
2023/07/11 06:57:08;;;;;;;22.95;21.40;;;23.10;66.10;;;;;;5068779;28;20039;-75
2023/07/11 06:59:34;;;;;;;24.70;22.80;;;23.20;67.70;;;;;;5084018;28;20062;-77
2023/07/11 07:01:59;;;;;;;24.55;22.58;;;23.40;65.30;;;;;;5084954;28;20354;-76
2023/07/11 07:04:25;;;;;;;25.38;23.45;;;23.50;66.00;;;;;;5081811;28;20036;-75
2023/07/11 07:06:50;;;;;;;22.25;20.25;;;23.70;66.20;;;;;;5098808;28;20043;-75
2023/07/11 07:09:16;;;;;;;24.60;22.77;;;23.90;64.50;;;;;;5101343;28;20031;-73
2023/07/11 07:11:42;;;;;;;25.05;22.88;;;24.00;64.80;;;;;;5099731;28;20031;-75
2023/07/11 07:14:10;;;;;;;22.90;21.00;;;24.20;66.00;;;;;;5116276;27;20039;-74
2023/07/11 07:16:38;;;;;;;22.92;21.13;;;24.40;65.80;;;;;;5118209;28;20020;-74
2023/07/11 07:19:05;;;;;;;24.15;22.17;;;24.30;64.80;;;;;;5116294;27;20063;-74
2023/07/11 07:21:31;;;;;;;25.75;23.60;;;24.50;65.20;;;;;;5116015;28;20032;-74
2023/07/11 07:23:57;;;;;;;23.88;21.83;;;24.50;63.90;;;;;;5108249;28;20051;-74
2023/07/11 07:26:23;;;;;;;24.27;22.20;;;24.60;62.20;;;;;;5101918;28;20047;-75
2023/07/11 07:28:49;;;;;;;24.02;21.90;;;24.70;64.30;;;;;;5095687;28;20031;-75
2023/07/11 07:31:15;;;;;;;25.13;22.42;;;24.80;62.20;;;;;;5099671;28;20027;-75
2023/07/11 07:33:41;;;;;;;23.98;21.83;;;25.00;62.70;;;;;;5094237;28;20157;-75
2023/07/11 07:36:09;;;;;;;25.52;23.20;;;25.30;62.40;;;;;;5095988;28;20322;-75
2023/07/11 07:38:35;;;;;;;23.67;21.50;;;25.30;61.40;;;;;;5101748;28;20035;-75
2023/07/11 07:41:06;;;;;;;25.45;23.02;;;25.60;62.00;;;;;;5084336;28;20446;-75
2023/07/11 07:43:33;;;;;;;26.30;24.35;;;25.60;60.80;;;;;;5099949;28;20197;-74
2023/07/11 07:46:00;;;;;;;24.95;22.77;;;25.70;60.60;;;;;;5099608;28;20028;-75
2023/07/11 07:48:27;;;;;;;33.60;31.15;;;25.90;61.10;;;;;;5079322;28;20032;-76
2023/07/11 07:51:02;;;;;;;34.22;31.35;;;26.00;59.10;;;;;;5096296;28;20403;-75
2023/07/11 07:53:27;;;;;;;35.05;32.17;;;26.10;58.10;;;;;;5099866;28;20035;-75
2023/07/11 07:55:53;;;;;;;32.95;30.20;;;26.20;58.10;;;;;;5096501;28;20459;-76
2023/07/11 07:58:19;;;;;;;33.40;31.02;;;26.30;58.20;;;;;;5079178;28;20058;-74
2023/07/11 08:00:44;;;;;;;34.50;32.13;;;26.50;59.00;;;;;;5082998;28;20194;-75
2023/07/11 08:03:10;;;;;;;41.22;38.10;;;26.50;57.10;;;;;;5068350;28;20680;-75
2023/07/11 08:05:37;;;;;;;44.10;41.30;;;26.60;55.90;;;;;;5101647;28;20493;-75
2023/07/11 08:08:04;;;;;;;39.10;36.53;;;26.70;55.60;;;;;;5096018;28;20663;-76
2023/07/11 08:10:31;;;;;;;40.10;37.55;;;26.90;55.90;;;;;;5103469;28;20131;-76
2023/07/11 08:12:57;;;;;;;29.52;27.58;;;27.00;54.60;;;;;;5079791;28;20032;-75
2023/07/11 08:15:23;;;;;;;40.17;37.58;;;27.00;54.20;;;;;;5095865;28;20047;-76
2023/07/11 08:17:49;;;;;;;38.22;35.72;;;27.40;57.20;;;;;;5097235;28;20039;-76
2023/07/11 08:20:14;;;;;;;41.70;39.15;;;27.30;56.20;;;;;;5097489;28;20420;-76
2023/07/11 08:22:42;;;;;;;30.00;27.15;;;27.20;55.40;;;;;;5099711;28;20035;-76
2023/07/11 08:25:08;;;;;;;28.38;26.60;;;27.50;54.60;;;;;;5098821;28;20032;-75
2023/07/11 08:27:34;;;;;;;104.72;100.28;;;27.70;54.70;;;;;;5097008;28;20579;-76
2023/07/11 08:29:59;;;;;;;120.18;114.82;;;27.60;50.90;;;;;;5081205;28;20042;-76
2023/07/11 08:32:25;;;;;;;118.40;113.30;;;27.70;50.60;;;;;;5102571;28;20035;-75
2023/07/11 08:34:51;;;;;;;29.27;27.35;;;27.70;50.20;;;;;;5082042;28;20036;-76
2023/07/11 08:37:17;;;;;;;116.13;111.25;;;27.90;53.20;;;;;;5100604;28;20330;-75
2023/07/11 08:39:43;;;;;;;30.05;27.92;;;28.30;50.00;;;;;;5100096;28;20019;-76
2023/07/11 08:42:41;;;;;;;82.78;78.53;;;28.30;52.10;;;;;;5104596;28;20046;-76
2023/07/11 08:45:26;;;;;;;96.60;92.40;;;28.50;52.60;;;;;;5101386;28;20032;-76
2023/07/11 08:48:11;;;;;;;145.30;139.52;;;28.70;49.40;;;;;;5102535;27;20024;-76
2023/07/11 08:51:02;;;;;;;105.53;100.85;;;29.10;49.40;;;;;;5098140;28;20020;-76
2023/07/11 08:53:35;;;;;;;169.48;162.48;;;29.20;47.70;;;;;;5085677;28;20080;-75
2023/07/11 08:56:22;;;;;;;191.70;184.50;;;28.90;45.50;;;;;;5103618;28;20039;-75
2023/07/11 08:58:49;;;;;;;86.47;82.55;;;29.10;47.00;;;;;;5101679;28;20023;-75
2023/07/11 09:01:43;;;;;;;159.35;151.93;;;29.00;44.10;;;;;;5069277;28;20032;-75
2023/07/11 09:04:16;;;;;;;109.75;104.95;;;29.00;45.50;;;;;;5102895;27;20028;-76
2023/07/11 09:06:57;;;;;;;179.70;172.85;;;29.20;45.10;;;;;;5101355;28;20024;-76
2023/07/11 09:09:24;;;;;;;129.18;124.10;;;29.30;46.60;;;;;;5102426;28;20783;-76
2023/07/11 09:11:56;;;;;;;144.00;138.23;;;29.60;45.40;;;;;;5102523;28;20030;-76
2023/07/11 09:14:58;;;;;;;102.78;98.47;;;29.70;49.10;;;;;;5101428;28;20036;-76
2023/07/11 09:17:57;;;;;;;146.52;140.63;;;30.00;46.00;;;;;;5105161;27;20023;-76
2023/07/11 09:20:44;;;;;;;142.68;137.23;;;30.00;45.50;;;;;;5100656;28;20038;-76
2023/07/11 09:23:44;;;;;;;160.45;154.02;;;30.20;46.50;;;;;;5101638;28;20023;-76
2023/07/11 09:26:22;;;;;;;183.90;176.75;;;30.10;44.80;;;;;;5104063;27;20076;-76
2023/07/11 09:28:49;;;;;;;175.85;168.93;;;30.20;43.10;;;;;;5102992;27;20098;-77
2023/07/11 09:31:19;;;;;;;136.55;130.95;;;30.30;46.40;;;;;;5088542;28;20039;-76
2023/07/11 09:33:52;;;;;;;115.07;110.65;;;30.60;43.00;;;;;;5098854;28;20529;-77
2023/07/11 09:36:37;;;;;;;191.15;184.02;;;30.90;43.80;;;;;;5101030;27;20616;-80
2023/07/11 09:39:30;;;;;;;261.75;251.73;;;31.00;40.60;;;;;;5099984;28;20036;-79
2023/07/11 09:42:13;;;;;;;496.92;474.95;;;30.80;41.60;;;;;;5104521;27;20037;-79
2023/07/11 09:44:38;;;;;;;582.92;554.80;;;31.10;38.40;;;;;;5101632;28;20026;-81
2023/07/11 09:47:16;;;;;;;362.20;347.00;;;30.90;38.30;;;;;;5069452;28;20023;-75
2023/07/11 09:49:44;;;;;;;477.40;456.88;;;31.40;40.90;;;;;;5099192;27;20169;-75
2023/07/11 09:52:19;;;;;;;349.33;334.98;;;31.10;39.60;;;;;;5085806;28;20038;-77
2023/07/11 09:54:46;;;;;;;447.10;428.05;;;31.50;42.20;;;;;;5101238;28;20024;-76
2023/07/11 09:57:12;;;;;;;354.65;339.55;;;31.40;39.00;;;;;;5101845;27;20092;-76
2023/07/11 09:59:42;;;;;;;508.20;485.70;;;31.60;40.50;;;;;;5080524;28;20485;-76
2023/07/11 10:02:16;;;;;;;592.72;564.40;;;31.60;39.40;;;;;;5099356;27;20036;-76
2023/07/11 10:04:42;;;;;;;616.42;586.30;;;32.00;40.30;;;;;;5100997;28;20047;-76
2023/07/11 10:07:15;;;;;;;663.63;629.80;;;32.10;39.00;;;;;;5099237;28;20368;-76
2023/07/11 10:09:49;;;;;;;637.85;606.58;;;32.10;40.90;;;;;;5104526;27;20111;-76
2023/07/11 10:12:20;;;;;;;616.88;587.17;;;32.10;40.40;;;;;;5102559;27;20362;-77
2023/07/11 10:14:52;;;;;;;671.08;636.80;;;32.40;38.60;;;;;;5097060;28;20027;-77
2023/07/11 10:17:25;;;;;;;770.80;726.40;;;32.60;36.50;;;;;;5085759;28;20048;-76
2023/07/11 10:19:56;;;;;;;847.50;793.92;;;32.40;36.40;;;;;;5104691;27;20143;-76
2023/07/11 10:22:26;;;;;;;756.80;713.17;;;32.50;34.60;;;;;;5097349;28;20436;-77
2023/07/11 10:25:02;;;;;;;809.25;755.53;;;32.10;36.20;;;;;;5084279;28;20040;-76
2023/07/11 10:27:35;;;;;;;796.08;747.97;;;32.50;36.80;;;;;;5105088;27;20036;-76
2023/07/11 10:30:03;;;;;;;734.67;694.95;;;32.70;37.70;;;;;;5083413;28;20020;-76
2023/07/11 10:32:47;;;;;;;871.67;815.10;;;32.70;38.70;;;;;;5097926;27;20526;-76
2023/07/11 10:35:18;;;;;;;676.60;640.83;;;32.90;36.60;;;;;;5099688;28;20028;-76
2023/07/11 10:38:06;;;;;;;793.40;741.25;;;33.20;39.50;;;;;;5101705;28;20101;-77
2023/07/11 10:40:38;;;;;;;909.70;846.17;;;33.10;36.40;;;;;;5097453;28;20038;-77
2023/07/11 10:43:20;;;;;;;895.05;835.70;;;33.70;34.60;;;;;;5101616;28;20027;-77
2023/07/11 10:45:48;;;;;;;922.55;860.03;;;33.30;35.40;;;;;;5103671;28;20073;-77
2023/07/11 10:48:34;;;;;;;936.95;873.10;;;34.00;36.00;;;;;;5102167;28;20060;-78
2023/07/11 10:51:28;;;;;;;791.88;745.35;;;34.40;35.00;;;;;;5082814;28;20055;-77
2023/07/11 10:54:03;;;;;;;908.83;848.05;;;34.50;36.10;;;;;;5078206;28;20104;-77
2023/07/11 10:56:46;;;;;;;457.65;424.70;;;34.80;36.70;;;;;;5080024;28;20023;-77
2023/07/11 10:59:14;;;;;;;881.92;824.42;;;34.30;33.00;;;;;;5085677;28;20054;-78
2023/07/11 11:02:05;;;;;;;854.10;796.35;;;34.40;36.30;;;;;;5078772;28;20549;-78
2023/07/11 11:04:58;;;;;;;965.08;680.70;;;34.10;35.40;;;;;;5097437;28;20031;-78
2023/07/11 11:07:24;;;;;;;1999.90;999.90;;;34.40;34.10;;;;;;5102499;28;20054;-78
2023/07/11 11:10:22;;;;;;;1999.90;999.90;;;35.90;33.50;;;;;;5102038;28;20516;-78
2023/07/11 11:12:57;;;;;;;1999.90;999.90;;;36.00;33.50;;;;;;5046003;28;20062;-78
2023/07/11 11:15:34;;;;;;;1999.90;999.90;;;36.90;29.90;;;;;;5084034;28;20828;-79
2023/07/11 11:18:19;;;;;;;1999.90;999.90;;;36.70;30.60;;;;;;5095973;28;20024;-78
2023/07/11 11:20:45;;;;;;;1532.72;780.08;;;36.50;30.30;;;;;;5099754;28;20058;-78
2023/07/11 11:23:30;;;;;;;1999.90;999.90;;;36.60;30.10;;;;;;5100810;28;20063;-78
2023/07/11 11:26:37;;;;;;;1999.90;999.90;;;36.50;29.10;;;;;;5101002;28;20813;-78
2023/07/11 11:29:21;;;;;;;1999.90;999.90;;;37.50;28.40;;;;;;5022255;28;20083;-79
2023/07/11 11:32:18;;;;;;;1999.90;999.90;;;37.60;29.50;;;;;;5026026;28;20164;-78
2023/07/11 11:35:03;;;;;;;1999.90;999.90;;;37.10;26.90;;;;;;5067846;28;20043;-77
2023/07/11 11:37:47;;;;;;;1999.90;999.90;;;37.50;30.00;;;;;;5096661;28;20098;-77
2023/07/11 11:40:22;;;;;;;1999.90;999.90;;;37.80;27.70;;;;;;5083650;28;20035;-78
2023/07/11 11:43:05;;;;;;;1999.90;999.90;;;37.30;26.10;;;;;;5097756;28;20024;-77
2023/07/11 11:45:32;;;;;;;1999.90;999.90;;;37.50;24.30;;;;;;5079209;28;20038;-77
2023/07/11 11:48:05;;;;;;;1999.90;999.90;;;37.50;27.20;;;;;;5094219;28;20051;-78
2023/07/11 11:50:35;;;;;;;1999.90;999.90;;;37.30;27.60;;;;;;5098545;28;20019;-76
2023/07/11 11:53:17;;;;;;;1999.90;999.90;;;37.50;27.40;;;;;;5097531;28;20127;-76
2023/07/11 11:56:18;;;;;;;1999.90;999.90;;;37.10;26.40;;;;;;5098274;28;20027;-78
2023/07/11 11:59:10;;;;;;;1999.90;999.90;;;37.30;25.10;;;;;;5039354;28;20472;-77
2023/07/11 12:01:53;;;;;;;1999.90;999.90;;;37.20;25.60;;;;;;5088921;28;20028;-78
2023/07/11 12:04:32;;;;;;;1999.90;999.90;;;36.50;26.30;;;;;;5099772;28;20035;-77
2023/07/11 12:07:13;;;;;;;1999.90;999.90;;;36.90;28.20;;;;;;5099499;28;20138;-77
2023/07/11 12:09:53;;;;;;;1999.90;999.90;;;37.30;26.90;;;;;;5103850;27;20039;-78
2023/07/11 12:12:19;;;;;;;1999.90;999.90;;;37.80;23.90;;;;;;5103789;28;20031;-78
2023/07/11 12:15:11;;;;;;;1999.90;999.90;;;38.40;24.40;;;;;;5099559;28;20016;-78
2023/07/11 12:17:38;;;;;;;1999.90;999.90;;;38.90;23.10;;;;;;5089603;28;20143;-82
2023/07/11 12:20:10;;;;;;;1999.90;999.90;;;38.60;22.90;;;;;;5103720;28;20067;-80
2023/07/11 12:22:39;;;;;;;1999.90;999.90;;;39.30;23.00;;;;;;5101045;28;20028;-81
2023/07/11 12:25:26;;;;;;;1999.90;999.90;;;39.10;23.60;;;;;;5088893;28;20035;-81
2023/07/11 12:28:01;;;;;;;1999.90;999.90;;;39.10;22.90;;;;;;5102479;28;20035;-81
2023/07/11 12:30:27;;;;;;;1999.90;999.90;;;38.70;21.70;;;;;;5100585;28;20034;-81
2023/07/11 12:33:13;;;;;;;1999.90;999.90;;;39.60;22.30;;;;;;5101561;28;20028;-81
2023/07/11 12:35:42;;;;;;;1999.90;999.90;;;39.40;21.30;;;;;;5098535;28;20081;-82